sensor_id;sensor_type;location;lat;lon;timestamp;pressure;altitude;pressure_sealevel;temperature;humidity
80640;BME280;69992;60.170;24.692;2024-03-02T00:00:10;102320.99;;;-4.58;33.36
80640;BME280;69992;60.170;24.692;2024-03-02T00:02:34;102320.14;;;-4.35;33.23
80640;BME280;69992;60.170;24.692;2024-03-02T00:05:00;102321.16;;;-4.46;33.28
80640;BME280;69992;60.170;24.692;2024-03-02T00:07:26;102331.67;;;-5.50;33.35
80640;BME280;69992;60.170;24.692;2024-03-02T00:09:54;102336.89;;;-5.46;33.37
80640;BME280;69992;60.170;24.692;2024-03-02T00:12:17;102342.49;;;-4.36;33.32
80640;BME280;69992;60.170;24.692;2024-03-02T00:14:43;102352.46;;;-5.43;33.34
80640;BME280;69992;60.170;24.692;2024-03-02T00:17:16;102351.33;;;-4.48;33.36
80640;BME280;69992;60.170;24.692;2024-03-02T00:19:39;102345.60;;;-4.38;33.34
80640;BME280;69992;60.170;24.692;2024-03-02T00:22:00;102340.14;;;-4.26;33.30
80640;BME280;69992;60.170;24.692;2024-03-02T00:24:31;102343.21;;;-4.23;33.31
80640;BME280;69992;60.170;24.692;2024-03-02T00:26:51;102338.06;;;-6.19;33.29
80640;BME280;69992;60.170;24.692;2024-03-02T00:29:17;102337.96;;;-4.28;33.28
80640;BME280;69992;60.170;24.692;2024-03-02T00:31:43;102340.91;;;-4.41;33.32
80640;BME280;69992;60.170;24.692;2024-03-02T00:34:09;102334.46;;;-3.50;33.34
80640;BME280;69992;60.170;24.692;2024-03-02T00:36:34;102335.55;;;-4.53;33.35
80640;BME280;69992;60.170;24.692;2024-03-02T00:39:03;102329.55;;;-4.54;33.35
80640;BME280;69992;60.170;24.692;2024-03-02T00:41:30;102322.08;;;-4.61;33.35
80640;BME280;69992;60.170;24.692;2024-03-02T00:43:57;102316.91;;;-4.74;33.38
80640;BME280;69992;60.170;24.692;2024-03-02T00:46:18;102317.66;;;-4.75;33.41
80640;BME280;69992;60.170;24.692;2024-03-02T00:48:48;102312.08;;;-6.69;33.42
80640;BME280;69992;60.170;24.692;2024-03-02T00:51:08;102314.41;;;-4.68;33.38
80640;BME280;69992;60.170;24.692;2024-03-02T00:53:34;102316.45;;;-4.63;33.38
80640;BME280;69992;60.170;24.692;2024-03-02T00:56:01;102301.94;;;-4.75;33.39
80640;BME280;69992;60.170;24.692;2024-03-02T00:58:25;102296.14;;;-4.85;33.42
80640;BME280;69992;60.170;24.692;2024-03-02T01:00:51;102297.86;;;-4.89;33.43
80640;BME280;69992;60.170;24.692;2024-03-02T01:03:19;102300.95;;;-4.88;33.46
80640;BME280;69992;60.170;24.692;2024-03-02T01:05:42;102289.31;;;-6.77;33.44
80640;BME280;69992;60.170;24.692;2024-03-02T01:08:08;102291.39;;;-4.91;33.43
80640;BME280;69992;60.170;24.692;2024-03-02T01:10:33;102291.91;;;-5.06;33.48
80640;BME280;69992;60.170;24.692;2024-03-02T01:12:58;102285.34;;;-5.09;33.52
80640;BME280;69992;60.170;24.692;2024-03-02T01:15:26;102287.05;;;-5.99;33.50
80640;BME280;69992;60.170;24.692;2024-03-02T01:17:49;102289.58;;;-4.97;33.46
80640;BME280;69992;60.170;24.692;2024-03-02T01:20:15;102287.13;;;-4.98;33.48
80640;BME280;69992;60.170;24.692;2024-03-02T01:22:41;102282.60;;;-6.88;33.46
80640;BME280;69992;60.170;24.692;2024-03-02T01:25:07;102279.29;;;-4.96;33.47
80640;BME280;69992;60.170;24.692;2024-03-02T01:27:33;102276.83;;;-3.94;33.47
80640;BME280;69992;60.170;24.692;2024-03-02T01:29:57;102269.86;;;-4.85;33.43
80640;BME280;69992;60.170;24.692;2024-03-02T01:32:22;102269.59;;;-5.83;33.44
80640;BME280;69992;60.170;24.692;2024-03-02T01:34:48;102262.95;;;-4.80;33.46
80640;BME280;69992;60.170;24.692;2024-03-02T01:37:13;102258.44;;;-4.64;33.40
80640;BME280;69992;60.170;24.692;2024-03-02T01:39:39;102260.56;;;-5.58;33.37
80640;BME280;69992;60.170;24.692;2024-03-02T01:42:04;102260.81;;;-4.59;33.35
80640;BME280;69992;60.170;24.692;2024-03-02T01:44:29;102262.19;;;-6.58;33.40
80640;BME280;69992;60.170;24.692;2024-03-02T01:46:54;102269.40;;;-4.57;33.40
80640;BME280;69992;60.170;24.692;2024-03-02T01:49:20;102273.56;;;-4.59;33.41
80640;BME280;69992;60.170;24.692;2024-03-02T01:51:46;102274.68;;;-5.53;33.38
80640;BME280;69992;60.170;24.692;2024-03-02T01:54:12;102275.69;;;-4.60;33.38
80640;BME280;69992;60.170;24.692;2024-03-02T01:56:37;102277.35;;;-4.67;33.40
80640;BME280;69992;60.170;24.692;2024-03-02T01:59:02;102277.91;;;-4.61;33.42
80640;BME280;69992;60.170;24.692;2024-03-02T02:01:28;102283.51;;;-4.49;33.40
80640;BME280;69992;60.170;24.692;2024-03-02T02:03:54;102288.29;;;-4.48;33.41
80640;BME280;69992;60.170;24.692;2024-03-02T02:06:20;102283.21;;;-5.38;33.39
80640;BME280;69992;60.170;24.692;2024-03-02T02:08:45;102279.71;;;-4.37;33.37
80640;BME280;69992;60.170;24.692;2024-03-02T02:11:14;102279.96;;;-4.42;33.36
80640;BME280;69992;60.170;24.692;2024-03-02T02:13:40;102274.24;;;-5.45;33.37
80640;BME280;69992;60.170;24.692;2024-03-02T02:16:06;102276.18;;;-5.49;33.40
80640;BME280;69992;60.170;24.692;2024-03-02T02:18:28;102271.99;;;-4.39;33.39
80640;BME280;69992;60.170;24.692;2024-03-02T02:20:54;102268.93;;;-6.27;33.36
80640;BME280;69992;60.170;24.692;2024-03-02T02:23:20;102269.52;;;-4.24;33.32
80640;BME280;69992;60.170;24.692;2024-03-02T02:25:45;102268.01;;;-4.25;33.34
80640;BME280;69992;60.170;24.692;2024-03-02T02:28:11;102267.60;;;-4.18;33.31
80640;BME280;69992;60.170;24.692;2024-03-02T02:30:38;102265.03;;;-4.11;33.28
80640;BME280;69992;60.170;24.692;2024-03-02T02:33:03;102263.90;;;-4.13;33.28
80640;BME280;69992;60.170;24.692;2024-03-02T02:35:29;102263.75;;;-4.11;33.30
80640;BME280;69992;60.170;24.692;2024-03-02T02:37:55;102265.15;;;-4.03;33.29
80640;BME280;69992;60.170;24.692;2024-03-02T02:40:20;102259.96;;;-4.99;33.26
80640;BME280;69992;60.170;24.692;2024-03-02T02:42:45;102257.19;;;-6.01;33.28
80640;BME280;69992;60.170;24.692;2024-03-02T02:45:11;102262.69;;;-4.10;33.29
80640;BME280;69992;60.170;24.692;2024-03-02T02:47:37;102261.12;;;-5.18;33.31
80640;BME280;69992;60.170;24.692;2024-03-02T02:50:03;102266.20;;;-4.27;33.34
80640;BME280;69992;60.170;24.692;2024-03-02T02:52:31;102263.96;;;-5.25;33.34
80640;BME280;69992;60.170;24.692;2024-03-02T02:54:54;102257.33;;;-4.38;33.36
80640;BME280;69992;60.170;24.692;2024-03-02T02:57:19;102261.68;;;-4.38;33.36
80640;BME280;69992;60.170;24.692;2024-03-02T02:59:45;102260.98;;;-5.32;33.35
80640;BME280;69992;60.170;24.692;2024-03-02T03:02:10;102261.73;;;-4.33;33.36
80640;BME280;69992;60.170;24.692;2024-03-02T03:04:40;102265.31;;;-4.32;33.36
80640;BME280;69992;60.170;24.692;2024-03-02T03:07:02;102265.70;;;-4.41;33.39
80640;BME280;69992;60.170;24.692;2024-03-02T03:09:27;102268.13;;;-5.49;33.42
80640;BME280;69992;60.170;24.692;2024-03-02T03:11:53;102269.33;;;-4.54;33.41
80640;BME280;69992;60.170;24.692;2024-03-02T03:14:19;102266.24;;;-4.57;33.43
80640;BME280;69992;60.170;24.692;2024-03-02T03:16:46;102260.20;;;-6.44;33.42
80640;BME280;69992;60.170;24.692;2024-03-02T03:19:09;102254.25;;;-4.40;33.39
80640;BME280;69992;60.170;24.692;2024-03-02T03:21:34;102249.14;;;-6.31;33.38
80640;BME280;69992;60.170;24.692;2024-03-02T03:24:00;102247.84;;;-4.39;33.35
80640;BME280;69992;60.170;24.692;2024-03-02T03:26:28;102240.92;;;-4.54;33.42
80640;BME280;69992;60.170;24.692;2024-03-02T03:28:51;102238.36;;;-4.57;33.42
80640;BME280;69992;60.170;24.692;2024-03-02T03:31:17;102241.84;;;-4.69;33.44
80640;BME280;69992;60.170;24.692;2024-03-02T03:33:43;102244.33;;;-6.59;33.44
80640;BME280;69992;60.170;24.692;2024-03-02T03:36:08;102246.83;;;-4.63;33.41
80640;BME280;69992;60.170;24.692;2024-03-02T03:38:37;102247.49;;;-4.68;33.45
80640;BME280;69992;60.170;24.692;2024-03-02T03:41:00;102244.94;;;-4.67;33.45
80640;BME280;69992;60.170;24.692;2024-03-02T03:43:26;102244.37;;;-3.78;33.46
80640;BME280;69992;60.170;24.692;2024-03-02T03:45:51;102245.66;;;-4.86;33.50
80640;BME280;69992;60.170;24.692;2024-03-02T03:48:17;102247.97;;;-5.81;33.52
80640;BME280;69992;60.170;24.692;2024-03-02T03:50:42;102249.80;;;-5.74;33.50
80640;BME280;69992;60.170;24.692;2024-03-02T03:53:08;102255.05;;;-4.63;33.46
80640;BME280;69992;60.170;24.692;2024-03-02T03:55:34;102257.08;;;-5.49;33.43
80640;BME280;69992;60.170;24.692;2024-03-02T03:57:59;102253.74;;;-4.62;33.44
80640;BME280;69992;60.170;24.692;2024-03-02T04:00:25;102252.95;;;-4.65;33.48
80640;BME280;69992;60.170;24.692;2024-03-02T04:02:51;102253.45;;;-4.69;33.48
80640;BME280;69992;60.170;24.692;2024-03-02T04:05:16;102259.98;;;-4.68;33.47
80640;BME280;69992;60.170;24.692;2024-03-02T04:07:42;102264.91;;;-6.65;33.46
80640;BME280;69992;60.170;24.692;2024-03-02T04:10:09;102270.72;;;-4.67;33.46
80640;BME280;69992;60.170;24.692;2024-03-02T04:12:39;102271.18;;;-4.57;33.44
80640;BME280;69992;60.170;24.692;2024-03-02T04:14:59;102263.98;;;-4.46;33.43
80640;BME280;69992;60.170;24.692;2024-03-02T04:17:25;102260.22;;;-5.41;33.41
80640;BME280;69992;60.170;24.692;2024-03-02T04:19:51;102261.98;;;-5.46;33.43
80640;BME280;69992;60.170;24.692;2024-03-02T04:22:16;102265.11;;;-4.45;33.44
80640;BME280;69992;60.170;24.692;2024-03-02T04:24:42;102264.16;;;-6.25;33.41
80640;BME280;69992;60.170;24.692;2024-03-02T04:27:08;102261.94;;;-5.20;33.38
80640;BME280;69992;60.170;24.692;2024-03-02T04:29:34;102259.24;;;-4.20;33.39
80640;BME280;69992;60.170;24.692;2024-03-02T04:31:59;102257.25;;;-4.25;33.38
80640;BME280;69992;60.170;24.692;2024-03-02T04:34:25;102261.52;;;-4.25;33.41
80640;BME280;69992;60.170;24.692;2024-03-02T04:36:51;102265.57;;;-6.12;33.40
80640;BME280;69992;60.170;24.692;2024-03-02T04:39:16;102266.57;;;-4.08;33.35
80640;BME280;69992;60.170;24.692;2024-03-02T04:41:42;102263.37;;;-6.07;33.35
80640;BME280;69992;60.170;24.692;2024-03-02T04:44:07;102261.09;;;-4.12;33.35
80640;BME280;69992;60.170;24.692;2024-03-02T04:46:33;102258.62;;;-5.17;33.36
80640;BME280;69992;60.170;24.692;2024-03-02T04:48:58;102257.30;;;-6.17;33.39
80640;BME280;69992;60.170;24.692;2024-03-02T04:51:24;102254.47;;;-4.20;33.39
80640;BME280;69992;60.170;24.692;2024-03-02T04:53:50;102255.60;;;-6.17;33.39
80640;BME280;69992;60.170;24.692;2024-03-02T04:56:15;102257.42;;;-5.25;33.42
80640;BME280;69992;60.170;24.692;2024-03-02T04:58:41;102255.72;;;-6.15;33.42
80640;BME280;69992;60.170;24.692;2024-03-02T05:01:09;102259.54;;;-4.12;33.39
80640;BME280;69992;60.170;24.692;2024-03-02T05:03:33;102264.69;;;-4.09;33.39
80640;BME280;69992;60.170;24.692;2024-03-02T05:05:58;102269.16;;;-4.08;33.40
80640;BME280;69992;60.170;24.692;2024-03-02T05:08:24;102270.07;;;-6.02;33.40
80640;BME280;69992;60.170;24.692;2024-03-02T05:10:49;102271.19;;;-4.01;33.40
80640;BME280;69992;60.170;24.692;2024-03-02T05:13:15;102281.42;;;-3.93;33.37
80640;BME280;69992;60.170;24.692;2024-03-02T05:15:40;102286.70;;;-5.89;33.37
80640;BME280;69992;60.170;24.692;2024-03-02T05:18:06;102289.46;;;-3.87;33.39
80640;BME280;69992;60.170;24.692;2024-03-02T05:20:31;102295.41;;;-5.73;33.36
80640;BME280;69992;60.170;24.692;2024-03-02T05:22:57;102299.14;;;-3.73;33.36
80640;BME280;69992;60.170;24.692;2024-03-02T05:25:23;102300.14;;;-3.76;33.37
80640;BME280;69992;60.170;24.692;2024-03-02T05:27:49;102299.20;;;-3.73;33.37
80640;BME280;69992;60.170;24.692;2024-03-02T05:30:14;102298.01;;;-4.70;33.38
80640;BME280;69992;60.170;24.692;2024-03-02T05:32:40;102299.50;;;-5.69;33.38
80640;BME280;69992;60.170;24.692;2024-03-02T05:35:06;102300.58;;;-5.59;33.37
80640;BME280;69992;60.170;24.692;2024-03-02T05:37:31;102303.00;;;-3.58;33.36
80640;BME280;69992;60.170;24.692;2024-03-02T05:39:56;102301.59;;;-3.59;33.36
80640;BME280;69992;60.170;24.692;2024-03-02T05:42:22;102298.58;;;-5.62;33.37
80640;BME280;69992;60.170;24.692;2024-03-02T05:44:47;102299.66;;;-5.69;33.39
80640;BME280;69992;60.170;24.692;2024-03-02T05:47:13;102299.17;;;-3.73;33.41
80640;BME280;69992;60.170;24.692;2024-03-02T05:49:39;102300.48;;;-5.66;33.40
80640;BME280;69992;60.170;24.692;2024-03-02T05:52:05;102302.14;;;-5.66;33.41
80640;BME280;69992;60.170;24.692;2024-03-02T05:54:30;102300.12;;;-3.69;33.41
80640;BME280;69992;60.170;24.692;2024-03-02T05:56:56;102297.84;;;-4.57;33.42
80640;BME280;69992;60.170;24.692;2024-03-02T05:59:22;102287.91;;;-4.47;33.40
80640;BME280;69992;60.170;24.692;2024-03-02T06:01:48;102284.93;;;-5.44;33.40
80640;BME280;69992;60.170;24.692;2024-03-02T06:04:14;102286.17;;;-4.52;33.41
80640;BME280;69992;60.170;24.692;2024-03-02T06:06:39;102289.61;;;-5.43;33.35
80640;BME280;69992;60.170;24.692;2024-03-02T06:09:06;102288.03;;;-4.49;33.37
80640;BME280;69992;60.170;24.692;2024-03-02T06:11:30;102286.53;;;-5.38;33.38
80640;BME280;69992;60.170;24.692;2024-03-02T06:13:57;102284.70;;;-5.38;33.40
80640;BME280;69992;60.170;24.692;2024-03-02T06:16:21;102285.16;;;-3.39;33.39
80640;BME280;69992;60.170;24.692;2024-03-02T06:18:47;102287.93;;;-5.37;33.42
80640;BME280;69992;60.170;24.692;2024-03-02T06:21:12;102290.30;;;-5.35;33.44
80640;BME280;69992;60.170;24.692;2024-03-02T06:23:38;102291.29;;;-5.35;33.44
80640;BME280;69992;60.170;24.692;2024-03-02T06:26:06;102291.61;;;-4.26;33.45
80640;BME280;69992;60.170;24.692;2024-03-02T06:28:29;102293.51;;;-5.07;33.42
80640;BME280;69992;60.170;24.692;2024-03-02T06:30:55;102296.72;;;-5.01;33.40
80640;BME280;69992;60.170;24.692;2024-03-02T06:33:20;102296.94;;;-4.95;33.40
80640;BME280;69992;60.170;24.692;2024-03-02T06:35:46;102303.99;;;-4.88;33.41
80640;BME280;69992;60.170;24.692;2024-03-02T06:38:21;102311.45;;;-4.81;33.41
80640;BME280;69992;60.170;24.692;2024-03-02T06:40:39;102314.87;;;-2.80;33.38
80640;BME280;69992;60.170;24.692;2024-03-02T06:43:03;102318.92;;;-4.74;33.40
80640;BME280;69992;60.170;24.692;2024-03-02T06:45:29;102318.55;;;-4.66;33.40
80640;BME280;69992;60.170;24.692;2024-03-02T06:47:54;102319.96;;;-4.72;33.41
80640;BME280;69992;60.170;24.692;2024-03-02T06:50:20;102321.61;;;-4.79;33.48
80640;BME280;69992;60.170;24.692;2024-03-02T06:52:56;102322.55;;;-4.70;33.48
80640;BME280;69992;60.170;24.692;2024-03-02T06:55:15;102322.15;;;-3.60;33.46
80640;BME280;69992;60.170;24.692;2024-03-02T06:57:38;102323.79;;;-5.37;33.45
80640;BME280;69992;60.170;24.692;2024-03-02T07:00:04;102326.66;;;-4.18;33.37
80640;BME280;69992;60.170;24.692;2024-03-02T07:02:29;102324.64;;;-4.14;33.39
80640;BME280;69992;60.170;24.692;2024-03-02T07:04:55;102324.79;;;-5.10;33.42
80640;BME280;69992;60.170;24.692;2024-03-02T07:07:21;102326.90;;;-4.04;33.43
80640;BME280;69992;60.170;24.692;2024-03-02T07:09:46;102325.50;;;-3.87;33.42
80640;BME280;69992;60.170;24.692;2024-03-02T07:12:12;102331.28;;;-3.78;33.38
80640;BME280;69992;60.170;24.692;2024-03-02T07:14:38;102333.75;;;-3.82;33.41
80640;BME280;69992;60.170;24.692;2024-03-02T07:17:04;102333.96;;;-4.78;33.43
80640;BME280;69992;60.170;24.692;2024-03-02T07:19:32;102336.40;;;-3.82;33.45
80640;BME280;69992;60.170;24.692;2024-03-02T07:21:55;102333.64;;;-3.74;33.45
80640;BME280;69992;60.170;24.692;2024-03-02T07:24:21;102335.26;;;-4.59;33.45
80640;BME280;69992;60.170;24.692;2024-03-02T07:26:47;102330.30;;;-4.53;33.44
80640;BME280;69992;60.170;24.692;2024-03-02T07:29:12;102325.64;;;-3.54;33.45
80640;BME280;69992;60.170;24.692;2024-03-02T07:31:39;102325.22;;;-3.62;33.48
80640;BME280;69992;60.170;24.692;2024-03-02T07:34:04;102320.33;;;-3.59;33.52
80640;BME280;69992;60.170;24.692;2024-03-02T07:36:30;102317.45;;;-4.49;33.51
80640;BME280;69992;60.170;24.692;2024-03-02T07:38:56;102310.88;;;-3.52;33.51
80640;BME280;69992;60.170;24.692;2024-03-02T07:41:21;102304.25;;;-4.37;33.50
80640;BME280;69992;60.170;24.692;2024-03-02T07:43:47;102305.65;;;-4.29;33.53
80640;BME280;69992;60.170;24.692;2024-03-02T07:46:13;102304.57;;;-3.17;33.53
80640;BME280;69992;60.170;24.692;2024-03-02T07:48:39;102309.07;;;-4.91;33.50
80640;BME280;69992;60.170;24.692;2024-03-02T07:51:04;102309.02;;;-2.92;33.51
80640;BME280;69992;60.170;24.692;2024-03-02T07:53:30;102306.94;;;-2.82;33.52
80640;BME280;69992;60.170;24.692;2024-03-02T07:55:56;102308.24;;;-3.77;33.54
80640;BME280;69992;60.170;24.692;2024-03-02T07:58:22;102307.85;;;-3.60;33.54
80640;BME280;69992;60.170;24.692;2024-03-02T08:00:47;102310.93;;;-3.47;33.53
80640;BME280;69992;60.170;24.692;2024-03-02T08:03:12;102317.94;;;-2.41;33.53
80640;BME280;69992;60.170;24.692;2024-03-02T08:05:38;102317.01;;;-3.21;33.54
80640;BME280;69992;60.170;24.692;2024-03-02T08:08:04;102317.37;;;-3.06;33.53
80640;BME280;69992;60.170;24.692;2024-03-02T08:10:29;102314.48;;;-1.86;33.51
80640;BME280;69992;60.170;24.692;2024-03-02T08:12:55;102310.26;;;-3.76;33.50
80640;BME280;69992;60.170;24.692;2024-03-02T08:15:20;102310.20;;;-3.64;33.52
80640;BME280;69992;60.170;24.692;2024-03-02T08:17:46;102308.56;;;-3.57;33.52
80640;BME280;69992;60.170;24.692;2024-03-02T08:20:12;102309.60;;;-2.59;33.54
80640;BME280;69992;60.170;24.692;2024-03-02T08:22:38;102315.63;;;-2.52;33.55
80640;BME280;69992;60.170;24.692;2024-03-02T08:25:04;102310.23;;;-3.48;33.54
80640;BME280;69992;60.170;24.692;2024-03-02T08:27:30;102304.30;;;-3.36;33.54
80640;BME280;69992;60.170;24.692;2024-03-02T08:29:55;102296.98;;;-3.32;33.55
80640;BME280;69992;60.170;24.692;2024-03-02T08:32:20;102295.04;;;-2.33;33.55
80640;BME280;69992;60.170;24.692;2024-03-02T08:34:46;102297.79;;;-3.31;33.60
80640;BME280;69992;60.170;24.692;2024-03-02T08:37:12;102302.63;;;-1.38;33.60
80640;BME280;69992;60.170;24.692;2024-03-02T08:39:38;102302.01;;;-3.39;33.58
80640;BME280;69992;60.170;24.692;2024-03-02T08:42:04;102303.67;;;-3.44;33.60
80640;BME280;69992;60.170;24.692;2024-03-02T08:44:29;102303.71;;;-3.53;33.64
80640;BME280;69992;60.170;24.692;2024-03-02T08:46:55;102307.97;;;-3.62;33.65
80640;BME280;69992;60.170;24.692;2024-03-02T08:49:21;102315.59;;;-3.70;33.67
80640;BME280;69992;60.170;24.692;2024-03-02T08:51:47;102316.51;;;-3.87;33.71
80640;BME280;69992;60.170;24.692;2024-03-02T08:54:12;102317.12;;;-3.00;33.76
80640;BME280;69992;60.170;24.692;2024-03-02T08:56:39;102324.24;;;-2.97;33.76
80640;BME280;69992;60.170;24.692;2024-03-02T08:59:03;102326.03;;;-3.96;33.75
80640;BME280;69992;60.170;24.692;2024-03-02T09:01:29;102321.09;;;-2.92;33.73
80640;BME280;69992;60.170;24.692;2024-03-02T09:03:55;102324.65;;;-3.01;33.72
80640;BME280;69992;60.170;24.692;2024-03-02T09:06:21;102315.55;;;-2.26;33.74
80640;BME280;69992;60.170;24.692;2024-03-02T09:08:47;102314.03;;;-3.36;33.81
80640;BME280;69992;60.170;24.692;2024-03-02T09:11:12;102315.13;;;-3.47;33.82
80640;BME280;69992;60.170;24.692;2024-03-02T09:13:39;102314.57;;;-3.61;33.84
80640;BME280;69992;60.170;24.692;2024-03-02T09:16:07;102314.26;;;-3.67;33.86
80640;BME280;69992;60.170;24.692;2024-03-02T09:18:29;102317.60;;;-3.59;33.84
80640;BME280;69992;60.170;24.692;2024-03-02T09:20:55;102319.93;;;-3.50;33.80
80640;BME280;69992;60.170;24.692;2024-03-02T09:23:21;102323.49;;;-2.73;33.81
80640;BME280;69992;60.170;24.692;2024-03-02T09:25:46;102326.01;;;-4.86;33.83
80640;BME280;69992;60.170;24.692;2024-03-02T09:28:15;102330.81;;;-3.07;33.86
80640;BME280;69992;60.170;24.692;2024-03-02T09:30:38;102335.24;;;-4.15;33.87
80640;BME280;69992;60.170;24.692;2024-03-02T09:33:04;102333.71;;;-3.12;33.85
80640;BME280;69992;60.170;24.692;2024-03-02T09:35:29;102332.54;;;-3.12;33.84
80640;BME280;69992;60.170;24.692;2024-03-02T09:37:55;102330.78;;;-3.10;33.84
80640;BME280;69992;60.170;24.692;2024-03-02T09:40:31;102328.25;;;-3.11;33.82
80640;BME280;69992;60.170;24.692;2024-03-02T09:42:50;102330.93;;;-4.11;33.80
80640;BME280;69992;60.170;24.692;2024-03-02T09:45:13;102330.99;;;-3.27;33.81
80640;BME280;69992;60.170;24.692;2024-03-02T09:47:39;102331.36;;;-3.27;33.84
80640;BME280;69992;60.170;24.692;2024-03-02T09:50:04;102333.72;;;-4.23;33.80
80640;BME280;69992;60.170;24.692;2024-03-02T09:52:28;102332.03;;;-3.23;33.81
80640;BME280;69992;60.170;24.692;2024-03-02T09:54:54;102329.34;;;-3.19;33.81
80640;BME280;69992;60.170;24.692;2024-03-02T09:57:19;102331.43;;;-3.18;33.78
80640;BME280;69992;60.170;24.692;2024-03-02T09:59:45;102335.38;;;-5.35;33.80
80640;BME280;69992;60.170;24.692;2024-03-02T10:02:11;102339.36;;;-4.53;33.81
80640;BME280;69992;60.170;24.692;2024-03-02T10:04:37;102343.81;;;-4.60;33.83
80640;BME280;69992;60.170;24.692;2024-03-02T10:07:10;102345.55;;;-3.68;33.87
80640;BME280;69992;60.170;24.692;2024-03-02T10:09:28;102349.56;;;-3.61;33.83
80640;BME280;69992;60.170;24.692;2024-03-02T10:11:54;102349.71;;;-3.62;33.83
80640;BME280;69992;60.170;24.692;2024-03-02T10:14:19;102351.89;;;-4.49;33.82
80640;BME280;69992;60.170;24.692;2024-03-02T10:16:45;102354.31;;;-3.43;33.81
80640;BME280;69992;60.170;24.692;2024-03-02T10:19:17;102350.70;;;-4.33;33.74
80640;BME280;69992;60.170;24.692;2024-03-02T10:21:40;102350.71;;;-4.25;33.72
80640;BME280;69992;60.170;24.692;2024-03-02T10:24:07;102349.34;;;-3.30;33.71
80640;BME280;69992;60.170;24.692;2024-03-02T10:26:29;102351.25;;;-4.30;33.71
80640;BME280;69992;60.170;24.692;2024-03-02T10:28:57;102350.23;;;-3.28;33.75
80640;BME280;69992;60.170;24.692;2024-03-02T10:31:20;102350.88;;;-3.95;33.14
80640;BME280;69992;60.170;24.692;2024-03-02T10:33:45;102348.32;;;-4.20;33.17
80640;BME280;69992;60.170;24.692;2024-03-02T10:36:11;102346.59;;;-3.59;33.37
80640;BME280;69992;60.170;24.692;2024-03-02T10:38:37;102349.68;;;-3.78;33.49
80640;BME280;69992;60.170;24.692;2024-03-02T10:41:03;102351.68;;;-2.99;33.55
80640;BME280;69992;60.170;24.692;2024-03-02T10:43:27;102349.91;;;-4.17;33.62
80640;BME280;69992;60.170;24.692;2024-03-02T10:45:54;102349.26;;;-4.29;33.67
80640;BME280;69992;60.170;24.692;2024-03-02T10:48:19;102347.70;;;-3.40;33.70
80640;BME280;69992;60.170;24.692;2024-03-02T10:50:43;102348.51;;;-4.36;33.75
80640;BME280;69992;60.170;24.692;2024-03-02T10:53:09;102348.97;;;-4.42;33.73
80640;BME280;69992;60.170;24.692;2024-03-02T10:55:35;102346.85;;;-3.53;33.75
80640;BME280;69992;60.170;24.692;2024-03-02T10:58:00;102347.37;;;-3.53;33.75
80640;BME280;69992;60.170;24.692;2024-03-02T11:00:29;102346.05;;;-3.53;33.75
80640;BME280;69992;60.170;24.692;2024-03-02T11:02:54;102346.51;;;-3.52;33.73
80640;BME280;69992;60.170;24.692;2024-03-02T11:05:27;102343.16;;;-4.57;33.74
80640;BME280;69992;60.170;24.692;2024-03-02T11:07:42;102343.98;;;-3.67;33.75
80640;BME280;69992;60.170;24.692;2024-03-02T11:10:08;102345.37;;;-4.69;33.75
80640;BME280;69992;60.170;24.692;2024-03-02T11:12:36;102349.08;;;-4.81;33.77
80640;BME280;69992;60.170;24.692;2024-03-02T11:14:59;102348.70;;;-5.02;33.79
80640;BME280;69992;60.170;24.692;2024-03-02T11:17:25;102345.61;;;-5.23;33.84
80640;BME280;69992;60.170;24.692;2024-03-02T11:19:50;102346.48;;;-4.31;33.89
80640;BME280;69992;60.170;24.692;2024-03-02T11:22:19;102343.11;;;-4.33;33.89
80640;BME280;69992;60.170;24.692;2024-03-02T11:24:48;102353.50;;;-6.33;33.90
80640;BME280;69992;60.170;24.692;2024-03-02T11:27:07;102351.30;;;-4.26;33.86
80640;BME280;69992;60.170;24.692;2024-03-02T11:29:43;102348.50;;;-4.26;33.85
80640;BME280;69992;60.170;24.692;2024-03-02T11:31:58;102348.22;;;-4.04;33.83
80640;BME280;69992;60.170;24.692;2024-03-02T11:34:29;102347.47;;;-3.82;33.78
80640;BME280;69992;60.170;24.692;2024-03-02T11:36:49;102344.47;;;-4.66;33.74
80640;BME280;69992;60.170;24.692;2024-03-02T11:39:15;102350.13;;;-3.69;33.70
80640;BME280;69992;60.170;24.692;2024-03-02T11:41:40;102346.20;;;-4.83;33.73
80640;BME280;69992;60.170;24.692;2024-03-02T11:44:06;102345.54;;;-3.90;33.83
80640;BME280;69992;60.170;24.692;2024-03-02T11:46:32;102346.97;;;-3.19;33.98
80640;BME280;69992;60.170;24.692;2024-03-02T11:48:57;102345.08;;;-2.88;33.74
80640;BME280;69992;60.170;24.692;2024-03-02T11:51:23;102340.16;;;-3.85;33.68
80640;BME280;69992;60.170;24.692;2024-03-02T11:53:50;102341.28;;;-4.95;33.65
80640;BME280;69992;60.170;24.692;2024-03-02T11:56:16;102339.55;;;-3.22;33.70
80640;BME280;69992;60.170;24.692;2024-03-02T11:58:40;102339.84;;;-5.27;33.74
80640;BME280;69992;60.170;24.692;2024-03-02T12:01:06;102337.81;;;-3.36;33.78
80640;BME280;69992;60.170;24.692;2024-03-02T12:03:32;102337.45;;;-3.27;33.78
80640;BME280;69992;60.170;24.692;2024-03-02T12:05:59;102335.96;;;-4.33;33.75
80640;BME280;69992;60.170;24.692;2024-03-02T12:08:23;102338.23;;;-3.37;33.79
80640;BME280;69992;60.170;24.692;2024-03-02T12:11:03;102339.36;;;-3.41;33.78
80640;BME280;69992;60.170;24.692;2024-03-02T12:13:14;102334.73;;;-4.47;33.76
80640;BME280;69992;60.170;24.692;2024-03-02T12:15:39;102332.36;;;-4.47;33.80
80640;BME280;69992;60.170;24.692;2024-03-02T12:18:05;102332.22;;;-3.50;33.81
80640;BME280;69992;60.170;24.692;2024-03-02T12:20:32;102334.22;;;-3.43;33.81
80640;BME280;69992;60.170;24.692;2024-03-02T12:22:58;102328.53;;;-3.45;33.83
80640;BME280;69992;60.170;24.692;2024-03-02T12:25:22;102327.49;;;-3.48;33.81
80640;BME280;69992;60.170;24.692;2024-03-02T12:27:47;102331.14;;;-4.43;33.83
80640;BME280;69992;60.170;24.692;2024-03-02T12:30:23;102332.98;;;-3.32;33.81